Henderson, NV (89009)

3:14 AM PST en Marzo 04, 2015 (GMT -0800)
River Mountain Ridge | Change Station
CLOSE
Current Station
Estación meteorológica personal
Location: Henderson, NV
Altura: 1942 ft
Estaciones meteorológicas cercanas

Alt 1942 ft 36.04 °N, 114.95 °W | Updated 5 minutes ago

Despejado
Despejado
38.3 ° F
Sensación térmica 38 ° F
N
0.0
Viento Variable Viento desde NE
Gusts 0.0 mph

Hoy
Alta -- | Baja -- ° F
--% Posibilidad de precipitaciones
Ayer
Alta -- | Baja -- ° F
Precip. -- pul
6:06 AM 5:37 PM
Gibosa creciente, 99% visible
Presión 30.05 pul
Visibilidad 10.0 Millas
Nubes Despejado
Vientos helados 38 ° F
Punto de rocío 26 ° F
Humedad 62%
Precipitaciones 0.00 pul
Espesor de la nieve No disponible.
UV 0 de una escala de 12
Polen 8.80 de una escala de 12
Calidad del aire No disponible.
Flu Activity No disponible.
METAR KBVU 041055Z AUTO 34010KT 10SM CLR 06/M05 A3005 RMK AO2

More Conditions Fewer Conditions

Presión 30.05 pul
Visibilidad 10.0 Millas
Nubes Despejado
Vientos helados 38 ° F
Punto de rocío 26 ° F
Humedad 62%
Precipitaciones 0.00 pul
Espesor de la nieve No disponible.
UV 0 de una escala de 12
Polen 8.80 de una escala de 12
Calidad del aire No disponible.
Flu Activity No disponible.
METAR KBVU 041055Z AUTO 34010KT 10SM CLR 06/M05 A3005 RMK AO2

More Conditions Fewer Conditions

10-Day Weather Forecast

Almanac

Astronomía

Mar. 04, 2015 Salida Puesta
Hora real
Crepúsculo civil
Crepúsculo náutico
Crepúsculo astronómico
Luna
Horas de luz
Horas de luz
Tomorrow will be .
, % of the Moon is Illuminated

Extremos de hoy

Máximos del estado Bajos del estado

Community

WunderPhotos

Upload Photos

1,802,434 ¡fotos cargadas!

WunderBlogs® & News

Nearby

Calidad del aire

  Calidad del aire Índice AQ Contaminante
Not available.

Grosos de nieve

Estación Profundido Altura

Actividad de terremotos

Ciudad Distance Mag. Tiempo y dato
Magnitud mínima muestra es 2,5.

Temperaturas de aguas costeras

Lugar Temperatura

Estaciones meteorológicas cercanas